Fenwood, Wisconsin
Current Conditions -  °F | °C
As of 5:45 PM on Thursday 27 Nov 2014 (Local Time) from KCWA Reporting Station
Clear Clear  
Wind Chill: -7°   Ceiling: Unl
Heat Index:   Visibility: 10mi
Dew Point:   Wind: 7mph
Humidity: 85%   Direction: 270°W
Pressure: 30.35"   Gusts: NA
Location:  44.8973°N, 90.0113°W
Report Text: KCWA 272345Z 27006KT 10SM SKC M15/M17 A3035
Loading
Personal Weather Stations






























Interactive Weather Map New forecast layout! Learn more

10-Day Weather Forecast

Advertisements
Track Severe Weather on mobile